• Join FlightAware (Why Join?)
  • Login
  • US Flag 
11:31AM EDT


 

Airport Tracker/Info


-or-


 

Live Flight TrackerFlight Track Log ✈ SWA341 ✈ 08-May-2013 ✈ KTPA - KMSY

Flight Track Log - Related Links

Times and Time Zones

All times are in EDT time to prevent confusion due to time zone crossing. See the SWA341 flight status page for this flight to view local times or setup timezone preferences in your user account.

Time Position Orientation Groundspeed Altitude Reporting Facility
EDT Latitude Longitude Course Direction KTS MPH feet Rate Location/Type
06:19AM 27.9833 -82.5333 360° North 180 207 700  Level Tampa TRACON
06:20AM 28.0000 -82.5333 360° North 155 178 1,500 2,340 Climbing Tampa TRACON
06:21AM 28.0667 -82.5333 360° North 239 275 4,000 3,180 Climbing Tampa TRACON
06:23AM 28.0061 -82.6575 241° Southwest 217 250 11,100 2,640 Climbing Miami Center
06:24AM 27.9450 -82.7272 225° Southwest 272 313 11,900 1,620 Climbing Miami Center
06:25AM 27.8792 -82.8036 226° Southwest 313 360 14,400 3,120 Climbing Miami Center
06:26AM 27.8069 -82.8892 226° Southwest 335 386 18,300 3,660 Climbing Miami Center
06:27AM 27.8319 -82.9867 286° West 312 359 21,900 3,180 Climbing Miami Center
06:28AM 27.8650 -83.0939 289° West 331 381 24,600 2,640 Climbing Miami Center
06:29AM 27.8997 -83.2061 289° West 352 405 27,100 2,400 Climbing Miami Center
06:30AM 27.9339 -83.3231 288° West 377 434 29,400 2,280 Climbing Miami Center
06:31AM 27.9725 -83.4428 290° West 399 459 31,700 2,340 Climbing Miami Center
06:32AM 28.0086 -83.5622 289° West 406 467 34,200 1,920 Climbing Miami Center
06:34AM 28.0903 -83.8078 291° West 403 464 37,700 1,620 Climbing Jacksonville Center
06:35AM 28.1269 -83.9281 289° West 408 470 39,200 1,140 Climbing Jacksonville Center
06:36AM 28.1636 -84.0486 289° West 408 470 40,000 360 Climbing Jacksonville Center
06:37AM 28.2000 -84.1692 289° West 402 463 40,000  Level Jacksonville Center
06:38AM 28.2364 -84.2872 289° West 408 470 40,000  Level Jacksonville Center
06:39AM 28.2744 -84.4103 289° West 408 470 40,000  Level Jacksonville Center
06:40AM 28.3125 -84.5406 288° West 408 470 40,000  Level Jacksonville Center
06:41AM 28.3506 -84.6592 290° West 408 470 40,000  Level Jacksonville Center
06:42AM 28.3886 -84.7803 290° West 403 464 40,000  Level Jacksonville Center
06:43AM 28.4242 -84.9036 288° West 408 470 40,000  Level Jacksonville Center
06:44AM 28.4619 -85.0225 290° West 408 470 40,000  Level Jacksonville Center
06:45AM 28.4997 -85.1389 290° West 408 470 40,000  Level Jacksonville Center
06:46AM 28.5350 -85.2603 288° West 408 470 40,000  Level Jacksonville Center
06:47AM 28.5703 -85.3864 288° West 408 470 40,000  Level Jacksonville Center
06:48AM 28.6075 -85.5031 290° West 408 470 40,000  Level Jacksonville Center
06:49AM 28.6386 -85.6175 287° West 408 470 40,000  Level Jacksonville Center
06:50AM 28.6736 -85.7367 289° West 408 470 40,000  Level Jacksonville Center
06:51AM 28.7125 -85.8586 290° West 408 470 40,000  Level Jacksonville Center
06:52AM 28.7472 -85.9803 288° West 408 470 40,000  Level Jacksonville Center
06:53AM 28.7819 -86.0997 288° West 408 470 40,000  Level Jacksonville Center
06:54AM 28.8183 -86.2194 289° West 408 470 40,000  Level Jacksonville Center
06:55AM 28.8506 -86.3414 287° West 408 470 40,000  Level Jacksonville Center
06:56AM 28.8869 -86.4636 289° West 408 470 40,000  Level Jacksonville Center
06:57AM 28.9233 -86.5833 289° West 408 470 40,000  Level Jacksonville Center
06:58AM 28.9572 -86.7058 288° West 408 470 40,000  Level Jacksonville Center
06:59AM 28.9911 -86.8281 288° West 408 470 40,000  Level Jacksonville Center
07:00AM 29.0269 -86.9506 289° West 408 470 40,000  Level Jacksonville Center
07:01AM 29.0628 -87.0708 289° West 408 470 40,000  Level Jacksonville Center
07:02AM 29.0983 -87.1958 288° West 408 470 40,000  Level Jacksonville Center
07:03AM 29.1317 -87.3161 288° West 408 470 40,000  Level Jacksonville Center
07:04AM 29.1764 -87.4806 287° West 405 466 40,000  Level Houston Center
07:05AM 29.2097 -87.6011 288° West 400 460 40,000  Level Houston Center
07:06AM 29.2433 -87.7225 288° West 400 460 40,000  Level Houston Center
07:07AM 29.2767 -87.8433 288° West 399 459 40,000  Level Houston Center
07:08AM 29.3156 -87.9872 287° West 396 456 40,000  Level Houston Center
07:09AM 29.3450 -88.0928 288° West 397 457 40,000  Level Houston Center
07:10AM 29.3792 -88.2189 287° West 399 459 40,000  Level Houston Center
07:11AM 29.4111 -88.3406 287° West 399 459 40,000 -60 Level Houston Center
07:12AM 29.4444 -88.4556 288° West 398 458 39,900 -1,200 Descending Houston Center
07:13AM 29.4758 -88.5764 287° West 397 457 37,600 -2,640 Descending Houston Center
07:14AM 29.5075 -88.6958 287° West 391 450 34,600 -3,660 Descending Houston Center
07:15AM 29.5478 -88.8442 287° West 405 466 30,300 -3,660 Descending Houston Center
07:16AM 29.5803 -88.9683 287° West 407 468 27,300 -2,820 Descending Houston Center
07:18AM 29.6119 -89.0875 287° West 395 455 24,600 -2,700 Descending Houston Center
07:19AM 29.6417 -89.2019 287° West 376 433 21,900 -2,640 Descending Houston Center
07:19AM 29.6628 -89.2806 287° West 365 420 20,200 -2,460 Descending Houston Center
07:20AM 29.6717 -89.3119 288° West 362 417 19,400 -2,460 Descending Houston Center
07:20AM 29.6944 -89.4011 286° West 343 395 17,500 -2,400 Descending Houston Center
07:21AM 29.6986 -89.4194 285° West 353 406 17,000 -2,520 Descending Houston Center
07:21AM 29.7214 -89.5050 287° West 333 383 15,000 -2,520 Descending Houston Center
07:22AM 29.7250 -89.5219 284° West 341 392 14,500 -2,340 Descending Houston Center
07:22AM 29.7431 -89.5903 287° West 330 380 12,900 -2,400 Descending Houston Center
07:23AM 29.7508 -89.6225 286° West 332 382 12,100 -1,980 Descending Houston Center
07:23AM 29.7783 -89.6989 293° West 313 360 10,700 -1,620 Descending Houston Center
07:24AM 29.7878 -89.7133 307° West 315 362 10,500 -1,200 Descending Houston Center
07:24AM 29.8247 -89.7733 305° West 274 315 9,500 -1,320 Descending Houston Center
07:25AM 29.8333 -89.7856 309° West 287 330 9,200 -1,740 Descending Houston Center
07:25AM 29.8756 -89.8528 306° West 261 300 7,600 -1,800 Descending Houston Center
07:26AM 29.9175 -89.9203 306° West 262 302 5,900 -1,680 Descending Houston Center
07:27AM 29.9572 -89.9833 306° West 265 305 4,400 -1,440 Descending Houston Center
07:28AM 29.9619 -89.9914 304° West 263 303 4,200 -1,020 Descending Houston Center
07:28AM 29.9969 -90.0514 304° West 258 297 3,400 -1,020 Descending Houston Center
07:29AM 30.0039 -90.0589 317° Northwest 262 302 3,200 -900 Descending Houston Center
07:29AM 30.0364 -90.1122 305° West 233 268 2,500 -900 Descending Houston Center
07:30AM 30.0422 -90.1211 307° West 251 289 2,300 -600 Descending Houston Center
07:30AM 30.0675 -90.1661 303° West 218 251 2,000 -420 Descending Houston Center
07:31AM 30.0778 -90.1794 312° West 237 273 1,900 -660 Descending Houston Center
07:32AM 30.0672 -90.2261 255° West 163 188 1,200 -780 Descending Houston Center
07:33AM 30.0278 -90.2375 194° South 133 153 500 -720 Descending Houston Center
07:35AM 29.9833 -90.2500 221° Southwest  Level FlightAware Approximate
07:42AM 29.9934 -90.2580 221° Southwest  Level Estimated